createdAt,value
2019-03-16T00:01:57.249Z,1.30
2019-03-16T00:06:56.678Z,1.20
2019-03-16T00:12:04.991Z,3.30
2019-03-16T00:17:23.368Z,1.00
2019-03-16T00:22:21.986Z,1.70
2019-03-16T00:27:29.065Z,0.83
2019-03-16T00:32:36.165Z,2.07
2019-03-16T00:37:43.555Z,0.90
2019-03-16T00:42:51.087Z,1.20
2019-03-16T00:48:00.460Z,3.40
2019-03-16T00:53:07.538Z,1.13
2019-03-16T00:58:14.654Z,10.33
2019-03-16T01:03:21.845Z,0.97
2019-03-16T01:08:29.250Z,0.87
2019-03-16T01:13:36.520Z,1.10
2019-03-16T01:18:47.863Z,0.47
2019-03-16T01:23:55.056Z,0.30
2019-03-16T01:29:02.349Z,0.60
2019-03-16T01:34:10.855Z,1.63
2019-03-16T01:39:17.929Z,0.50
2019-03-16T01:44:25.018Z,0.57
2019-03-16T01:49:32.151Z,1.00
2019-03-16T01:54:41.104Z,2.50
2019-03-16T01:59:48.271Z,1.80
2019-03-16T02:04:55.479Z,2.17
2019-03-16T02:10:02.752Z,1.47
2019-03-16T02:15:10.718Z,1.17
2019-03-16T02:20:17.818Z,0.70
2019-03-16T02:25:26.535Z,0.60
2019-03-16T02:30:33.718Z,0.50
2019-03-16T02:35:41.196Z,0.50
2019-03-16T02:40:48.880Z,0.50
2019-03-16T02:45:56.549Z,1.00
2019-03-16T02:51:03.934Z,1.37
2019-03-16T02:56:11.000Z,1.10
2019-03-16T03:01:18.076Z,1.00
2019-03-16T03:06:25.199Z,3.83
2019-03-16T03:11:32.425Z,1.57
2019-03-16T03:16:39.832Z,0.70
2019-03-16T03:21:46.917Z,1.93
2019-03-16T03:26:55.118Z,1.67
2019-03-16T03:32:02.288Z,2.30
2019-03-16T03:37:09.553Z,3.23
2019-03-16T03:42:16.870Z,2.37
2019-03-16T03:47:24.210Z,2.83
2019-03-16T03:52:31.416Z,3.70
2019-03-16T03:57:40.117Z,1.60
2019-03-16T04:02:47.275Z,2.23
2019-03-16T04:07:54.565Z,2.13
2019-03-16T04:13:01.735Z,3.73
2019-03-16T04:18:08.747Z,2.00
2019-03-16T04:23:15.840Z,1.90
2019-03-16T04:28:23.043Z,2.97
2019-03-16T04:33:30.304Z,2.80
2019-03-16T04:38:37.468Z,1.77
2019-03-16T04:43:44.845Z,2.93
2019-03-16T04:48:51.956Z,3.00
2019-03-16T04:53:59.127Z,1.80
2019-03-16T04:59:08.047Z,2.73
2019-03-16T05:04:15.101Z,2.13
2019-03-16T05:09:22.273Z,2.60
2019-03-16T05:14:29.605Z,4.00
2019-03-16T05:19:36.694Z,8.47
2019-03-16T05:24:44.862Z,1.90
2019-03-16T05:29:51.935Z,1.80
2019-03-16T05:34:59.171Z,1.60
2019-03-16T05:40:06.590Z,1.90
2019-03-16T05:45:13.784Z,1.70
2019-03-16T05:50:21.000Z,2.35
2019-03-16T05:55:28.091Z,3.93
2019-03-16T06:00:35.186Z,4.37
2019-03-16T06:05:43.006Z,2.20
2019-03-16T06:10:50.119Z,5.23
2019-03-16T06:15:57.391Z,6.03
2019-03-16T06:21:04.642Z,12.20
2019-03-16T06:26:11.770Z,3.27
2019-03-16T06:31:18.940Z,5.73
2019-03-16T06:36:26.062Z,4.63
2019-03-16T06:41:33.143Z,3.83
2019-03-16T06:46:40.567Z,32.47
2019-03-16T06:51:47.780Z,47.43
2019-03-16T06:56:55.095Z,78.57
2019-03-16T07:02:02.244Z,216.07
2019-03-16T07:07:09.500Z,7.70
2019-03-16T07:12:17.160Z,7.67
2019-03-16T07:17:25.332Z,20.20
2019-03-16T07:22:32.643Z,6.43
2019-03-16T07:27:39.859Z,4.13
2019-03-16T07:32:48.046Z,7.93
2019-03-16T07:37:55.218Z,5.03
2019-03-16T07:43:02.504Z,5.77
2019-03-16T07:48:10.075Z,3.60
2019-03-16T07:53:17.473Z,1.63
2019-03-16T07:58:26.888Z,1.70
2019-03-16T08:03:35.245Z,8.07
2019-03-16T08:08:42.486Z,1.67
2019-03-16T08:13:52.521Z,1.00
2019-03-16T08:18:59.744Z,1.07
2019-03-16T08:24:11.128Z,2.47
2019-03-16T08:29:19.028Z,7.70
2019-03-16T08:34:28.578Z,9.83
2019-03-16T08:39:36.287Z,9.10
2019-03-16T08:44:43.406Z,5.33
2019-03-16T08:49:50.559Z,12.03
2019-03-16T08:55:03.743Z,2.97
2019-03-16T09:00:11.375Z,4.28
2019-03-16T09:05:18.439Z,4.40
2019-03-16T09:10:25.687Z,2.37
2019-03-16T09:15:32.785Z,3.77
2019-03-16T09:20:40.777Z,5.93
2019-03-16T09:25:48.248Z,3.20
2019-03-16T09:30:56.725Z,5.83
2019-03-16T09:36:03.839Z,8.03
2019-03-16T09:41:11.074Z,14.30
2019-03-16T09:46:18.399Z,6.43
2019-03-16T09:51:25.579Z,7.83
2019-03-16T09:56:32.811Z,9.77
2019-03-16T10:01:40.068Z,7.30
2019-03-16T10:06:47.214Z,7.63
2019-03-16T10:11:55.849Z,7.87
2019-03-16T10:17:04.379Z,11.07
2019-03-16T10:22:13.311Z,13.33
2019-03-16T10:27:21.055Z,14.20
2019-03-16T10:32:31.580Z,6.40
2019-03-16T10:37:40.622Z,14.20
2019-03-16T10:42:49.236Z,6.27
2019-03-16T10:47:56.773Z,7.53
2019-03-16T10:53:03.903Z,10.47
2019-03-16T10:58:11.043Z,6.47
2019-03-16T11:03:18.383Z,5.40
2019-03-16T11:08:25.676Z,7.10
2019-03-16T11:13:32.826Z,3.07
2019-03-16T11:18:40.019Z,5.57
2019-03-16T11:23:47.261Z,9.57
2019-03-16T11:28:54.577Z,6.70
2019-03-16T11:34:01.818Z,22.47
2019-03-16T11:39:10.275Z,8.43
2019-03-16T11:44:17.544Z,10.33
2019-03-16T11:49:24.834Z,4.30
2019-03-16T11:54:32.120Z,6.70
2019-03-16T11:59:39.575Z,7.83
2019-03-16T12:04:46.799Z,11.07
2019-03-16T12:09:53.957Z,9.20
2019-03-16T12:15:01.042Z,14.53
2019-03-16T12:20:09.184Z,9.60
2019-03-16T12:25:17.121Z,14.35
2019-03-16T12:30:24.357Z,7.57
2019-03-16T12:35:31.967Z,8.97
2019-03-16T12:40:41.064Z,13.43
2019-03-16T12:45:48.201Z,12.10
2019-03-16T12:50:55.994Z,8.97
2019-03-16T12:56:03.147Z,14.13
2019-03-16T13:01:12.654Z,27.50
2019-03-16T13:06:20.101Z,11.07
2019-03-16T13:11:27.190Z,7.40
2019-03-16T13:16:37.156Z,10.27
2019-03-16T13:21:43.934Z,15.60
2019-03-16T13:26:51.400Z,11.07
2019-03-16T13:31:58.939Z,11.77
2019-03-16T13:37:06.055Z,9.73
2019-03-16T13:42:13.135Z,8.33
2019-03-16T13:47:20.384Z,10.13
2019-03-16T13:52:27.447Z,8.20
2019-03-16T13:57:34.736Z,7.63
2019-03-16T14:02:41.856Z,6.53
2019-03-16T14:07:49.183Z,9.23
2019-03-16T14:12:56.796Z,9.00
2019-03-16T14:18:04.003Z,12.20
2019-03-16T14:23:11.241Z,26.03
2019-03-16T14:28:21.092Z,8.93
2019-03-16T14:33:29.005Z,12.23
2019-03-16T14:38:36.482Z,17.97
2019-03-16T14:43:43.697Z,10.63
2019-03-16T14:48:50.814Z,16.57
2019-03-16T14:53:58.710Z,23.27
2019-03-16T14:59:06.181Z,28.47
2019-03-16T15:04:13.506Z,11.40
2019-03-16T15:09:20.694Z,11.88
2019-03-16T15:14:27.897Z,13.10
2019-03-16T15:19:35.097Z,11.57
2019-03-16T15:24:42.314Z,33.00
2019-03-16T15:29:50.287Z,14.27
2019-03-16T15:34:58.048Z,22.13
2019-03-16T15:40:06.369Z,23.87
2019-03-16T15:45:15.566Z,20.80
2019-03-16T15:50:22.758Z,18.25
2019-03-16T15:55:29.937Z,18.70
2019-03-16T16:00:37.891Z,22.90
2019-03-16T16:05:46.428Z,18.97
2019-03-16T16:11:01.008Z,19.97
2019-03-16T16:16:02.289Z,23.93
2019-03-16T16:21:09.402Z,11.17
2019-03-16T16:26:16.533Z,22.80
2019-03-16T16:31:24.651Z,13.43
2019-03-16T16:36:31.850Z,84.00
2019-03-16T16:41:39.175Z,51.03
2019-03-16T16:46:46.507Z,326.90
2019-03-16T16:51:53.774Z,452.30
2019-03-16T16:57:01.487Z,547.43
2019-03-16T17:02:08.598Z,149.17
2019-03-16T17:07:15.816Z,105.43
2019-03-16T17:12:23.273Z,115.90
2019-03-16T17:17:35.243Z,106.10
2019-03-16T17:22:39.370Z,109.20
2019-03-16T17:27:46.447Z,92.10
2019-03-16T17:32:53.751Z,98.90
2019-03-16T17:38:00.933Z,89.03
2019-03-16T17:43:08.148Z,33.70
2019-03-16T17:48:15.305Z,39.05
2019-03-16T17:53:22.583Z,36.50
2019-03-16T17:58:29.667Z,26.87
2019-03-16T18:03:37.652Z,27.03
2019-03-16T18:08:44.817Z,56.93
2019-03-16T18:13:52.181Z,81.53
2019-03-16T18:18:59.280Z,72.63
2019-03-16T18:24:06.550Z,75.23
2019-03-16T18:29:13.888Z,76.57
2019-03-16T18:34:20.999Z,91.70
2019-03-16T18:39:28.110Z,85.97
2019-03-16T18:44:35.392Z,83.80
2019-03-16T18:49:42.704Z,87.20
2019-03-16T18:54:49.924Z,93.07
2019-03-16T18:59:57.210Z,94.10
2019-03-16T19:05:04.773Z,74.33
2019-03-16T19:10:12.306Z,129.65
2019-03-16T19:15:19.846Z,103.22
2019-03-16T19:20:26.961Z,107.07
2019-03-16T19:25:34.137Z,76.10
2019-03-16T19:30:41.452Z,115.93
2019-03-16T19:35:48.659Z,32.80
2019-03-16T19:40:55.882Z,30.50
2019-03-16T19:46:04.599Z,43.23
2019-03-16T19:51:13.028Z,44.60
2019-03-16T19:56:20.348Z,30.27
2019-03-16T20:01:27.687Z,59.30
2019-03-16T20:06:35.558Z,54.60
2019-03-16T20:11:43.482Z,37.03
2019-03-16T20:16:51.558Z,37.77
2019-03-16T20:22:06.364Z,27.73
2019-03-16T20:27:14.618Z,29.37
2019-03-16T20:32:21.699Z,29.13
2019-03-16T20:37:28.995Z,27.13
2019-03-16T20:42:36.497Z,22.87
2019-03-16T20:47:43.688Z,21.53
2019-03-16T20:52:50.819Z,29.17
2019-03-16T20:57:57.943Z,51.37
2019-03-16T21:03:15.605Z,71.00
2019-03-16T21:08:14.853Z,134.87
2019-03-16T21:13:22.267Z,68.20
2019-03-16T21:18:29.416Z,55.93
2019-03-16T21:23:36.619Z,44.87
2019-03-16T21:28:44.349Z,26.70
2019-03-16T21:33:51.445Z,24.60
2019-03-16T21:38:58.571Z,30.10
2019-03-16T21:44:06.220Z,19.60
2019-03-16T21:49:13.338Z,33.53
2019-03-16T21:54:20.537Z,26.50
2019-03-16T21:59:27.685Z,22.67
2019-03-16T22:04:34.814Z,22.67
2019-03-16T22:09:43.735Z,25.60
2019-03-16T22:14:51.058Z,26.97
2019-03-16T22:19:58.388Z,48.40
2019-03-16T22:25:06.558Z,45.80
2019-03-16T22:30:13.827Z,28.47
2019-03-16T22:35:22.023Z,22.97
2019-03-16T22:40:29.625Z,19.13
2019-03-16T22:45:36.915Z,13.70
2019-03-16T22:50:43.905Z,12.57
2019-03-16T22:55:51.050Z,12.60
2019-03-16T23:00:58.319Z,9.20
2019-03-16T23:06:05.935Z,12.80
2019-03-16T23:11:13.126Z,9.03
2019-03-16T23:16:20.323Z,8.63
2019-03-16T23:21:27.716Z,9.73
2019-03-16T23:26:38.654Z,9.60
2019-03-16T23:31:43.616Z,11.07
2019-03-16T23:36:50.768Z,12.27
2019-03-16T23:41:58.337Z,8.40
2019-03-16T23:47:06.519Z,10.13
2019-03-16T23:52:13.623Z,10.75
2019-03-16T23:57:20.729Z,8.33
